EZY613 EGKK-EGPH
Flight info
| Callsign | EZY613 |
|---|---|
| Flight time | 0h 58m |
| Altitude | 38000 |
| Route | LAM L10 BPK UN601 RIBEL DCT INPIP |
| Aircraft | A20N/M-SDE2E3FGHIRWXY/LB1 |
Departure
| Time | 2026-04-21 13:09 |
|---|---|
| Airport | London Gatwick Airport (EGKK) |
Arrival
| Time | 2026-04-21 14:08 |
|---|---|
| Airport | Edinburgh Airport (EGPH) |
| Time | Latitude | Longitude | Altitude | Speed | Heading |
|---|---|---|---|---|---|
| 2026-04-21 12:35 | 51.16038 | -0.16962 | 204 ft | 0 kts | 333° |
| 2026-04-21 12:53 | 51.16038 | -0.16961 | 204 ft | 0 kts | 333° |
| 2026-04-21 12:54 | 51.16026 | -0.16952 | 215 ft | 2 kts | 332° |
| 2026-04-21 12:54 | 51.16012 | -0.16940 | 209 ft | 2 kts | 330° |
| 2026-04-21 12:54 | 51.15998 | -0.16926 | 209 ft | 2 kts | 326° |
| 2026-04-21 12:55 | 51.15985 | -0.16910 | 215 ft | 2 kts | 313° |
| 2026-04-21 12:55 | 51.15977 | -0.16887 | 211 ft | 2 kts | 262° |
| 2026-04-21 12:55 | 51.15978 | -0.16877 | 210 ft | 0 kts | 258° |
| 2026-04-21 13:00 | 51.15976 | -0.16889 | 211 ft | 3 kts | 258° |
| 2026-04-21 13:00 | 51.15961 | -0.16957 | 211 ft | 10 kts | 243° |
| 2026-04-21 13:00 | 51.15905 | -0.17054 | 209 ft | 14 kts | 213° |
| 2026-04-21 13:01 | 51.15816 | -0.17134 | 208 ft | 15 kts | 245° |
| 2026-04-21 13:01 | 51.15788 | -0.17319 | 212 ft | 19 kts | 257° |
| 2026-04-21 13:01 | 51.15756 | -0.17548 | 208 ft | 23 kts | 257° |
| 2026-04-21 13:01 | 51.15721 | -0.17815 | 204 ft | 26 kts | 258° |
| 2026-04-21 13:02 | 51.15679 | -0.18120 | 207 ft | 30 kts | 258° |
| 2026-04-21 13:02 | 51.15633 | -0.18443 | 216 ft | 25 kts | 257° |
| 2026-04-21 13:02 | 51.15499 | -0.18814 | 208 ft | 16 kts | 166° |
| 2026-04-21 13:03 | 51.15382 | -0.18772 | 211 ft | 19 kts | 167° |
| 2026-04-21 13:03 | 51.15246 | -0.18726 | 208 ft | 22 kts | 167° |
| 2026-04-21 13:03 | 51.15200 | -0.18710 | 214 ft | 0 kts | 168° |
| 2026-04-21 13:04 | 51.15198 | -0.18709 | 216 ft | 2 kts | 168° |
| 2026-04-21 13:04 | 51.15142 | -0.18720 | 213 ft | 14 kts | 212° |
| 2026-04-21 13:04 | 51.15108 | -0.18901 | 208 ft | 23 kts | 258° |
| 2026-04-21 13:05 | 51.15066 | -0.19201 | 208 ft | 32 kts | 257° |
| 2026-04-21 13:05 | 51.15027 | -0.19486 | 215 ft | 28 kts | 257° |
| 2026-04-21 13:05 | 51.14982 | -0.19807 | 208 ft | 32 kts | 257° |
| 2026-04-21 13:05 | 51.14939 | -0.20128 | 213 ft | 30 kts | 257° |
| 2026-04-21 13:06 | 51.14894 | -0.20439 | 207 ft | 30 kts | 257° |
| 2026-04-21 13:06 | 51.14849 | -0.20784 | 207 ft | 33 kts | 257° |
| 2026-04-21 13:06 | 51.14808 | -0.21078 | 211 ft | 24 kts | 256° |
| 2026-04-21 13:06 | 51.14761 | -0.21349 | 205 ft | 22 kts | 257° |
| 2026-04-21 13:07 | 51.14731 | -0.21402 | 207 ft | 0 kts | 200° |
| 2026-04-21 13:07 | 51.14727 | -0.21403 | 216 ft | 3 kts | 192° |
| 2026-04-21 13:07 | 51.14664 | -0.21369 | 212 ft | 17 kts | 140° |
| 2026-04-21 13:07 | 51.14560 | -0.21298 | 207 ft | 18 kts | 149° |
| 2026-04-21 13:08 | 51.14521 | -0.21182 | 209 ft | 18 kts | 91° |
| 2026-04-21 13:08 | 51.14529 | -0.21119 | 211 ft | 0 kts | 78° |
| 2026-04-21 13:08 | 51.14530 | -0.21113 | 209 ft | 4 kts | 78° |
| 2026-04-21 13:08 | 51.14575 | -0.20757 | 208 ft | 65 kts | 78° |
| 2026-04-21 13:09 | 51.14718 | -0.19755 | 212 ft | 117 kts | 78° |
| 2026-04-21 13:09 | 51.14899 | -0.18403 | 648 ft | 118 kts | 77° |
| 2026-04-21 13:09 | 51.15023 | -0.17177 | 1350 ft | 110 kts | 80° |
| 2026-04-21 13:09 | 51.15161 | -0.15939 | 1874 ft | 119 kts | 76° |
| 2026-04-21 13:10 | 51.15298 | -0.15066 | 2168 ft | 128 kts | 75° |
| 2026-04-21 13:10 | 51.15542 | -0.13579 | 2491 ft | 147 kts | 75° |
| 2026-04-21 13:10 | 51.15798 | -0.11914 | 2865 ft | 163 kts | 77° |
| 2026-04-21 13:10 | 51.16146 | -0.09448 | 3574 ft | 180 kts | 77° |
| 2026-04-21 13:11 | 51.16344 | -0.08130 | 4072 ft | 182 kts | 73° |
| 2026-04-21 13:11 | 51.16867 | -0.06168 | 4496 ft | 213 kts | 62° |
| 2026-04-21 13:11 | 51.17795 | -0.04116 | 4658 ft | 242 kts | 54° |
| 2026-04-21 13:11 | 51.18877 | -0.02037 | 4770 ft | 243 kts | 46° |
| 2026-04-21 13:12 | 51.20386 | -0.00735 | 4933 ft | 256 kts | 20° |
| 2026-04-21 13:12 | 51.22152 | -0.00090 | 5498 ft | 265 kts | 17° |
| 2026-04-21 13:12 | 51.23931 | 0.00493 | 5602 ft | 259 kts | 16° |
| 2026-04-21 13:12 | 51.25805 | 0.00596 | 5727 ft | 268 kts | 358° |
| 2026-04-21 13:13 | 51.27626 | 0.00181 | 6182 ft | 273 kts | 356° |
| 2026-04-21 13:13 | 51.29542 | -0.00292 | 7321 ft | 273 kts | 356° |
| 2026-04-21 13:13 | 51.31401 | -0.00738 | 8408 ft | 276 kts | 356° |
| 2026-04-21 13:13 | 51.33295 | -0.01176 | 9444 ft | 280 kts | 356° |
| 2026-04-21 13:14 | 51.35257 | -0.01622 | 10459 ft | 285 kts | 356° |
| 2026-04-21 13:14 | 51.37285 | -0.02075 | 11063 ft | 305 kts | 356° |
| 2026-04-21 13:14 | 51.39449 | -0.02552 | 11483 ft | 328 kts | 355° |
| 2026-04-21 13:14 | 51.41755 | -0.03069 | 12157 ft | 339 kts | 355° |
| 2026-04-21 13:15 | 51.44117 | -0.03607 | 13114 ft | 343 kts | 355° |
| 2026-04-21 13:15 | 51.46508 | -0.04154 | 14068 ft | 347 kts | 355° |
| 2026-04-21 13:15 | 51.48895 | -0.04699 | 14847 ft | 352 kts | 355° |
| 2026-04-21 13:15 | 51.51355 | -0.05261 | 15637 ft | 357 kts | 355° |
| 2026-04-21 13:16 | 51.53838 | -0.05826 | 16422 ft | 362 kts | 354° |
| 2026-04-21 13:16 | 51.56322 | -0.06392 | 17196 ft | 367 kts | 354° |
| 2026-04-21 13:16 | 51.58863 | -0.06972 | 17957 ft | 371 kts | 354° |
| 2026-04-21 13:16 | 51.61444 | -0.07561 | 18713 ft | 376 kts | 354° |
| 2026-04-21 13:17 | 51.64049 | -0.08154 | 19645 ft | 373 kts | 353° |
| 2026-04-21 13:17 | 51.66610 | -0.08735 | 20618 ft | 369 kts | 352° |
| 2026-04-21 13:17 | 51.69032 | -0.09284 | 21402 ft | 369 kts | 351° |
| 2026-04-21 13:17 | 51.71580 | -0.09867 | 22046 ft | 373 kts | 350° |
| 2026-04-21 13:18 | 51.74092 | -0.10793 | 22674 ft | 377 kts | 342° |
| 2026-04-21 13:18 | 51.76558 | -0.12311 | 23359 ft | 379 kts | 334° |
| 2026-04-21 13:18 | 51.78886 | -0.14355 | 24036 ft | 381 kts | 329° |
| 2026-04-21 13:18 | 51.81150 | -0.16530 | 24648 ft | 382 kts | 329° |
| 2026-04-21 13:19 | 51.83442 | -0.18706 | 25240 ft | 382 kts | 328° |
| 2026-04-21 13:19 | 51.85749 | -0.20895 | 25834 ft | 382 kts | 328° |
| 2026-04-21 13:19 | 51.88020 | -0.23057 | 26444 ft | 382 kts | 328° |
| 2026-04-21 13:19 | 51.90320 | -0.25253 | 27043 ft | 383 kts | 328° |
| 2026-04-21 13:20 | 51.92630 | -0.27463 | 27621 ft | 384 kts | 327° |
| 2026-04-21 13:20 | 51.94911 | -0.29649 | 28189 ft | 384 kts | 327° |
| 2026-04-21 13:20 | 51.97210 | -0.31856 | 28722 ft | 385 kts | 327° |
| 2026-04-21 13:20 | 51.99524 | -0.34080 | 29244 ft | 385 kts | 327° |
| 2026-04-21 13:21 | 52.01817 | -0.36286 | 29738 ft | 386 kts | 327° |
| 2026-04-21 13:21 | 52.04147 | -0.38531 | 30261 ft | 387 kts | 326° |
| 2026-04-21 13:21 | 52.06466 | -0.40768 | 30674 ft | 389 kts | 326° |
| 2026-04-21 13:21 | 52.08780 | -0.43004 | 30939 ft | 393 kts | 326° |
| 2026-04-21 13:22 | 52.11160 | -0.45307 | 31247 ft | 397 kts | 326° |
| 2026-04-21 13:22 | 52.13540 | -0.47610 | 31592 ft | 399 kts | 326° |
| 2026-04-21 13:22 | 52.15920 | -0.49916 | 31934 ft | 401 kts | 326° |
| 2026-04-21 13:22 | 52.18338 | -0.52261 | 32301 ft | 403 kts | 327° |
| 2026-04-21 13:23 | 52.20765 | -0.54619 | 32675 ft | 405 kts | 327° |
| 2026-04-21 13:23 | 52.23171 | -0.56958 | 33021 ft | 406 kts | 327° |
| 2026-04-21 13:23 | 52.25602 | -0.59329 | 33364 ft | 408 kts | 327° |
| 2026-04-21 13:23 | 52.28051 | -0.61722 | 33711 ft | 409 kts | 327° |
| 2026-04-21 13:24 | 52.30504 | -0.64121 | 34057 ft | 411 kts | 327° |
| 2026-04-21 13:24 | 52.32969 | -0.66536 | 34399 ft | 412 kts | 327° |
| 2026-04-21 13:24 | 52.35409 | -0.68928 | 34653 ft | 414 kts | 327° |
| 2026-04-21 13:24 | 52.37890 | -0.71363 | 34911 ft | 416 kts | 327° |
| 2026-04-21 13:25 | 52.40381 | -0.73808 | 35172 ft | 417 kts | 327° |
| 2026-04-21 13:25 | 52.42857 | -0.76240 | 35426 ft | 419 kts | 327° |
| 2026-04-21 13:25 | 52.45372 | -0.78712 | 35678 ft | 420 kts | 327° |
| 2026-04-21 13:25 | 52.47861 | -0.81164 | 35928 ft | 422 kts | 327° |
| 2026-04-21 13:26 | 52.50394 | -0.83662 | 36176 ft | 423 kts | 327° |
| 2026-04-21 13:26 | 52.52934 | -0.86170 | 36406 ft | 424 kts | 327° |
| 2026-04-21 13:26 | 52.55445 | -0.88654 | 36632 ft | 426 kts | 328° |
| 2026-04-21 13:26 | 52.57986 | -0.91170 | 36864 ft | 427 kts | 328° |
| 2026-04-21 13:27 | 52.60545 | -0.93707 | 37084 ft | 427 kts | 328° |
| 2026-04-21 13:27 | 52.63093 | -0.96237 | 37324 ft | 428 kts | 328° |
| 2026-04-21 13:27 | 52.65646 | -0.98777 | 37578 ft | 428 kts | 328° |
| 2026-04-21 13:27 | 52.68171 | -1.01293 | 37809 ft | 428 kts | 328° |
| 2026-04-21 13:28 | 52.70737 | -1.03854 | 38102 ft | 429 kts | 328° |
| 2026-04-21 13:28 | 52.73273 | -1.06387 | 38322 ft | 429 kts | 328° |
| 2026-04-21 13:28 | 52.78367 | -1.11487 | 38377 ft | 428 kts | 328° |
| 2026-04-21 13:29 | 52.83438 | -1.16576 | 38375 ft | 427 kts | 328° |
| 2026-04-21 13:29 | 52.88538 | -1.21709 | 38369 ft | 428 kts | 328° |
| 2026-04-21 13:30 | 52.93602 | -1.26820 | 38381 ft | 427 kts | 328° |
| 2026-04-21 13:30 | 52.98671 | -1.31950 | 38377 ft | 429 kts | 328° |
| 2026-04-21 13:31 | 53.03764 | -1.37117 | 38375 ft | 426 kts | 328° |
| 2026-04-21 13:31 | 53.08834 | -1.42275 | 38391 ft | 427 kts | 328° |
| 2026-04-21 13:32 | 53.13886 | -1.47427 | 38384 ft | 428 kts | 328° |
| 2026-04-21 13:32 | 53.18981 | -1.52640 | 38397 ft | 430 kts | 328° |
| 2026-04-21 13:33 | 53.24058 | -1.57850 | 38399 ft | 430 kts | 328° |
| 2026-04-21 13:33 | 53.29178 | -1.63117 | 38398 ft | 431 kts | 328° |
| 2026-04-21 13:34 | 53.34272 | -1.68377 | 38401 ft | 429 kts | 328° |
| 2026-04-21 13:34 | 53.39341 | -1.73628 | 38395 ft | 431 kts | 328° |
| 2026-04-21 13:35 | 53.44458 | -1.78945 | 38406 ft | 432 kts | 327° |
| 2026-04-21 13:35 | 53.49536 | -1.84232 | 38408 ft | 430 kts | 328° |
| 2026-04-21 13:36 | 53.54623 | -1.89540 | 38404 ft | 432 kts | 328° |
| 2026-04-21 13:36 | 53.59729 | -1.94883 | 38406 ft | 433 kts | 328° |
| 2026-04-21 13:37 | 53.64854 | -2.00267 | 38416 ft | 433 kts | 327° |
| 2026-04-21 13:37 | 53.69970 | -2.05663 | 38416 ft | 435 kts | 327° |
| 2026-04-21 13:38 | 53.75195 | -2.10727 | 38417 ft | 434 kts | 334° |
| 2026-04-21 13:38 | 53.80766 | -2.14613 | 38416 ft | 434 kts | 337° |
| 2026-04-21 13:39 | 53.86401 | -2.18491 | 38420 ft | 437 kts | 337° |
| 2026-04-21 13:39 | 53.92020 | -2.22358 | 38419 ft | 435 kts | 337° |
| 2026-04-21 13:40 | 53.97671 | -2.26245 | 38419 ft | 436 kts | 337° |
| 2026-04-21 13:40 | 54.03272 | -2.30103 | 38426 ft | 437 kts | 337° |
| 2026-04-21 13:41 | 54.08921 | -2.34002 | 38425 ft | 437 kts | 338° |
| 2026-04-21 13:41 | 54.14571 | -2.37904 | 38430 ft | 438 kts | 337° |
| 2026-04-21 13:42 | 54.20205 | -2.41816 | 38436 ft | 439 kts | 338° |
| 2026-04-21 13:42 | 54.25852 | -2.45751 | 38430 ft | 439 kts | 338° |
| 2026-04-21 13:43 | 54.31533 | -2.49722 | 38345 ft | 440 kts | 337° |
| 2026-04-21 13:43 | 54.34377 | -2.51714 | 38089 ft | 440 kts | 337° |
| 2026-04-21 13:43 | 54.37185 | -2.53689 | 37823 ft | 439 kts | 336° |
| 2026-04-21 13:44 | 54.40009 | -2.55686 | 37559 ft | 437 kts | 336° |
| 2026-04-21 13:44 | 54.42818 | -2.57673 | 37298 ft | 435 kts | 336° |
| 2026-04-21 13:44 | 54.45647 | -2.59666 | 36890 ft | 437 kts | 336° |
| 2026-04-21 13:44 | 54.48446 | -2.61635 | 36237 ft | 439 kts | 336° |
| 2026-04-21 13:45 | 54.51291 | -2.63638 | 35468 ft | 441 kts | 336° |
| 2026-04-21 13:45 | 54.54108 | -2.65628 | 34742 ft | 442 kts | 335° |
| 2026-04-21 13:45 | 54.56951 | -2.67633 | 33938 ft | 442 kts | 336° |
| 2026-04-21 13:45 | 54.59802 | -2.69645 | 33157 ft | 441 kts | 335° |
| 2026-04-21 13:46 | 54.62644 | -2.71664 | 32343 ft | 440 kts | 336° |
| 2026-04-21 13:46 | 54.65485 | -2.73688 | 31496 ft | 442 kts | 336° |
| 2026-04-21 13:46 | 54.68306 | -2.75708 | 30673 ft | 444 kts | 336° |
| 2026-04-21 13:46 | 54.71148 | -2.77750 | 30066 ft | 438 kts | 336° |
| 2026-04-21 13:47 | 54.73952 | -2.79765 | 29463 ft | 432 kts | 337° |
| 2026-04-21 13:47 | 54.76717 | -2.81752 | 28861 ft | 427 kts | 338° |
| 2026-04-21 13:47 | 54.79422 | -2.83698 | 28272 ft | 423 kts | 338° |
| 2026-04-21 13:47 | 54.82139 | -2.85653 | 27681 ft | 419 kts | 338° |
| 2026-04-21 13:48 | 54.84834 | -2.87595 | 27087 ft | 416 kts | 339° |
| 2026-04-21 13:48 | 54.87492 | -2.89510 | 26804 ft | 406 kts | 339° |
| 2026-04-21 13:48 | 54.90119 | -2.91405 | 26723 ft | 412 kts | 339° |
| 2026-04-21 13:48 | 54.92744 | -2.93302 | 26525 ft | 412 kts | 339° |
| 2026-04-21 13:49 | 54.95398 | -2.95224 | 26007 ft | 414 kts | 339° |
| 2026-04-21 13:49 | 54.98079 | -2.97170 | 25226 ft | 418 kts | 339° |
| 2026-04-21 13:49 | 54.99863 | -2.98464 | 24520 ft | 420 kts | 339° |
| 2026-04-21 13:49 | 55.02587 | -3.00441 | 23054 ft | 428 kts | 340° |
| 2026-04-21 13:50 | 55.05312 | -3.02424 | 22519 ft | 417 kts | 340° |
| 2026-04-21 13:50 | 55.07932 | -3.04338 | 21694 ft | 411 kts | 340° |
| 2026-04-21 13:50 | 55.10544 | -3.06247 | 21110 ft | 398 kts | 340° |
| 2026-04-21 13:50 | 55.13035 | -3.08073 | 20866 ft | 377 kts | 340° |
| 2026-04-21 13:51 | 55.15389 | -3.09805 | 20672 ft | 357 kts | 340° |
| 2026-04-21 13:51 | 55.17607 | -3.11435 | 20354 ft | 343 kts | 340° |
| 2026-04-21 13:51 | 55.19802 | -3.13043 | 19721 ft | 340 kts | 341° |
| 2026-04-21 13:51 | 55.21977 | -3.14632 | 19130 ft | 337 kts | 341° |
| 2026-04-21 13:52 | 55.24137 | -3.16212 | 18494 ft | 334 kts | 341° |
| 2026-04-21 13:52 | 55.26252 | -3.17762 | 17814 ft | 332 kts | 341° |
| 2026-04-21 13:52 | 55.28390 | -3.19283 | 17190 ft | 327 kts | 346° |
| 2026-04-21 13:52 | 55.30558 | -3.20087 | 16561 ft | 318 kts | 359° |
| 2026-04-21 13:53 | 55.32750 | -3.20014 | 15915 ft | 312 kts | 10° |
| 2026-04-21 13:53 | 55.34872 | -3.19655 | 15697 ft | 296 kts | 9° |
| 2026-04-21 13:53 | 55.36893 | -3.19339 | 15508 ft | 287 kts | 9° |
| 2026-04-21 13:53 | 55.38854 | -3.19033 | 15163 ft | 285 kts | 9° |
| 2026-04-21 13:54 | 55.40836 | -3.18724 | 14655 ft | 283 kts | 9° |
| 2026-04-21 13:54 | 55.42799 | -3.18417 | 14104 ft | 282 kts | 9° |
| 2026-04-21 13:54 | 55.44737 | -3.18114 | 13548 ft | 280 kts | 9° |
| 2026-04-21 13:54 | 55.46680 | -3.18439 | 12976 ft | 284 kts | 344° |
| 2026-04-21 13:55 | 55.48389 | -3.20265 | 12434 ft | 294 kts | 317° |
| 2026-04-21 13:55 | 55.49662 | -3.23143 | 11901 ft | 296 kts | 305° |
| 2026-04-21 13:55 | 55.50777 | -3.26116 | 11475 ft | 292 kts | 304° |
| 2026-04-21 13:55 | 55.51887 | -3.29095 | 10999 ft | 288 kts | 304° |
| 2026-04-21 13:56 | 55.52987 | -3.32044 | 10456 ft | 287 kts | 304° |
| 2026-04-21 13:56 | 55.54085 | -3.34985 | 9871 ft | 285 kts | 304° |
| 2026-04-21 13:56 | 55.55157 | -3.37869 | 9339 ft | 282 kts | 304° |
| 2026-04-21 13:56 | 55.56229 | -3.40767 | 8797 ft | 279 kts | 304° |
| 2026-04-21 13:57 | 55.57271 | -3.43608 | 8295 ft | 275 kts | 304° |
| 2026-04-21 13:57 | 55.58336 | -3.46409 | 7774 ft | 273 kts | 308° |
| 2026-04-21 13:57 | 55.59483 | -3.49094 | 7268 ft | 271 kts | 309° |
| 2026-04-21 13:57 | 55.60623 | -3.51744 | 6749 ft | 269 kts | 309° |
| 2026-04-21 13:58 | 55.61749 | -3.54375 | 6259 ft | 267 kts | 309° |
| 2026-04-21 13:58 | 55.62869 | -3.56997 | 5760 ft | 266 kts | 309° |
| 2026-04-21 13:58 | 55.63972 | -3.59576 | 5273 ft | 264 kts | 309° |
| 2026-04-21 13:58 | 55.65083 | -3.62166 | 4800 ft | 261 kts | 313° |
| 2026-04-21 13:59 | 55.66460 | -3.64036 | 4441 ft | 245 kts | 340° |
| 2026-04-21 13:59 | 55.67963 | -3.65262 | 4278 ft | 232 kts | 340° |
| 2026-04-21 13:59 | 55.69422 | -3.66460 | 4085 ft | 228 kts | 340° |
| 2026-04-21 13:59 | 55.70844 | -3.67640 | 3981 ft | 224 kts | 340° |
| 2026-04-21 14:00 | 55.72282 | -3.68836 | 3970 ft | 228 kts | 340° |
| 2026-04-21 14:00 | 55.73698 | -3.70021 | 3974 ft | 227 kts | 340° |
| 2026-04-21 14:00 | 55.75136 | -3.71229 | 3979 ft | 228 kts | 340° |
| 2026-04-21 14:00 | 55.76551 | -3.72425 | 3976 ft | 228 kts | 340° |
| 2026-04-21 14:01 | 55.78004 | -3.73654 | 3976 ft | 228 kts | 340° |
| 2026-04-21 14:01 | 55.79442 | -3.74865 | 3974 ft | 227 kts | 342° |
| 2026-04-21 14:01 | 55.80934 | -3.75306 | 3982 ft | 213 kts | 16° |
| 2026-04-21 14:01 | 55.82217 | -3.74257 | 3983 ft | 204 kts | 45° |
| 2026-04-21 14:02 | 55.83160 | -3.72408 | 3980 ft | 199 kts | 58° |
| 2026-04-21 14:02 | 55.83891 | -3.70353 | 3983 ft | 195 kts | 63° |
| 2026-04-21 14:02 | 55.84558 | -3.68306 | 3978 ft | 188 kts | 62° |
| 2026-04-21 14:03 | 55.85893 | -3.64325 | 3599 ft | 183 kts | 62° |
| 2026-04-21 14:03 | 55.86532 | -3.62425 | 3328 ft | 174 kts | 62° |
| 2026-04-21 14:03 | 55.87138 | -3.60616 | 3079 ft | 164 kts | 62° |
| 2026-04-21 14:03 | 55.87700 | -3.58945 | 2861 ft | 155 kts | 62° |
| 2026-04-21 14:04 | 55.88241 | -3.57328 | 2631 ft | 148 kts | 62° |
| 2026-04-21 14:04 | 55.88752 | -3.55809 | 2442 ft | 141 kts | 62° |
| 2026-04-21 14:04 | 55.89244 | -3.54347 | 2240 ft | 133 kts | 62° |
| 2026-04-21 14:04 | 55.89695 | -3.53008 | 2066 ft | 117 kts | 62° |
| 2026-04-21 14:05 | 55.90099 | -3.51800 | 1910 ft | 116 kts | 62° |
| 2026-04-21 14:05 | 55.90515 | -3.50558 | 1757 ft | 115 kts | 62° |
| 2026-04-21 14:05 | 55.90929 | -3.49332 | 1594 ft | 118 kts | 61° |
| 2026-04-21 14:05 | 55.91362 | -3.48042 | 1426 ft | 122 kts | 62° |
| 2026-04-21 14:06 | 55.91792 | -3.46774 | 1255 ft | 119 kts | 62° |
| 2026-04-21 14:06 | 55.92215 | -3.45510 | 1077 ft | 116 kts | 62° |
| 2026-04-21 14:06 | 55.92631 | -3.44280 | 915 ft | 114 kts | 62° |
| 2026-04-21 14:06 | 55.93048 | -3.43039 | 760 ft | 119 kts | 59° |
| 2026-04-21 14:07 | 55.93484 | -3.41755 | 577 ft | 123 kts | 59° |
| 2026-04-21 14:07 | 55.93915 | -3.40447 | 383 ft | 121 kts | 59° |
| 2026-04-21 14:07 | 55.94340 | -3.39191 | 217 ft | 115 kts | 58° |
| 2026-04-21 14:07 | 55.94746 | -3.38013 | 118 ft | 97 kts | 59° |
| 2026-04-21 14:08 | 55.94961 | -3.37372 | 112 ft | 44 kts | 59° |
| 2026-04-21 14:08 | 55.95109 | -3.36945 | 114 ft | 37 kts | 57° |
| 2026-04-21 14:08 | 55.95229 | -3.36604 | 109 ft | 31 kts | 62° |
| 2026-04-21 14:08 | 55.95238 | -3.36396 | 108 ft | 14 kts | 157° |
| 2026-04-21 14:09 | 55.95160 | -3.36309 | 109 ft | 13 kts | 115° |
| 2026-04-21 14:09 | 55.95123 | -3.36130 | 106 ft | 17 kts | 107° |
| 2026-04-21 14:09 | 55.95073 | -3.35912 | 106 ft | 20 kts | 117° |
| 2026-04-21 14:09 | 55.94980 | -3.35859 | 105 ft | 15 kts | 196° |
| 2026-04-21 14:10 | 55.94922 | -3.35816 | 105 ft | 9 kts | 132° |
| 2026-04-21 14:10 | 55.94873 | -3.35837 | 102 ft | 10 kts | 204° |
| 2026-04-21 14:10 | 55.94843 | -3.35864 | 101 ft | 0 kts | 207° |
| 2026-04-21 14:24 | 55.94843 | -3.35863 | 101 ft | 0 kts | 207° |